sensor_id;sensor_type;location;lat;lon;timestamp;temperature;humidity
22081;DHT22;11207;59.512;18.050;2022-08-19T00:00:17;19.00;99.90
22081;DHT22;11207;59.512;18.050;2022-08-19T00:02:44;19.00;99.90
22081;DHT22;11207;59.512;18.050;2022-08-19T00:05:13;19.00;99.90
22081;DHT22;11207;59.512;18.050;2022-08-19T00:07:39;19.00;99.90
22081;DHT22;11207;59.512;18.050;2022-08-19T00:10:06;19.00;99.90
22081;DHT22;11207;59.512;18.050;2022-08-19T00:12:33;19.00;99.90
22081;DHT22;11207;59.512;18.050;2022-08-19T00:14:58;19.00;99.90
22081;DHT22;11207;59.512;18.050;2022-08-19T00:17:24;19.10;99.90
22081;DHT22;11207;59.512;18.050;2022-08-19T00:19:50;19.10;99.90
22081;DHT22;11207;59.512;18.050;2022-08-19T00:22:15;19.10;99.90
22081;DHT22;11207;59.512;18.050;2022-08-19T00:24:43;19.10;99.90
22081;DHT22;11207;59.512;18.050;2022-08-19T00:27:09;19.00;99.90
22081;DHT22;11207;59.512;18.050;2022-08-19T00:29:35;19.10;99.90
22081;DHT22;11207;59.512;18.050;2022-08-19T00:32:02;19.10;99.90
22081;DHT22;11207;59.512;18.050;2022-08-19T00:34:27;19.10;99.90
22081;DHT22;11207;59.512;18.050;2022-08-19T00:36:56;19.10;99.90
22081;DHT22;11207;59.512;18.050;2022-08-19T00:39:22;19.10;99.90
22081;DHT22;11207;59.512;18.050;2022-08-19T00:41:48;19.10;99.90
22081;DHT22;11207;59.512;18.050;2022-08-19T00:44:24;19.10;99.90
22081;DHT22;11207;59.512;18.050;2022-08-19T00:46:51;19.10;99.90
22081;DHT22;11207;59.512;18.050;2022-08-19T00:51:53;19.30;99.90
22081;DHT22;11207;59.512;18.050;2022-08-19T00:54:20;19.30;99.90
22081;DHT22;11207;59.512;18.050;2022-08-19T00:56:47;19.30;99.90
22081;DHT22;11207;59.512;18.050;2022-08-19T00:59:15;19.30;99.90
22081;DHT22;11207;59.512;18.050;2022-08-19T01:01:43;19.30;99.90
22081;DHT22;11207;59.512;18.050;2022-08-19T01:04:09;19.30;99.90
22081;DHT22;11207;59.512;18.050;2022-08-19T01:06:39;19.30;99.90
22081;DHT22;11207;59.512;18.050;2022-08-19T01:09:06;19.30;99.90
22081;DHT22;11207;59.512;18.050;2022-08-19T01:11:35;19.30;99.90
22081;DHT22;11207;59.512;18.050;2022-08-19T01:14:01;19.30;99.90
22081;DHT22;11207;59.512;18.050;2022-08-19T01:16:28;19.30;99.90
22081;DHT22;11207;59.512;18.050;2022-08-19T01:18:55;19.30;99.90
22081;DHT22;11207;59.512;18.050;2022-08-19T01:21:27;19.30;99.90
22081;DHT22;11207;59.512;18.050;2022-08-19T01:23:55;19.40;99.90
22081;DHT22;11207;59.512;18.050;2022-08-19T01:26:23;19.40;99.90
22081;DHT22;11207;59.512;18.050;2022-08-19T01:28:53;19.40;99.90
22081;DHT22;11207;59.512;18.050;2022-08-19T01:31:22;19.40;99.90
22081;DHT22;11207;59.512;18.050;2022-08-19T01:33:49;19.50;99.90
22081;DHT22;11207;59.512;18.050;2022-08-19T01:36:29;19.40;99.90
22081;DHT22;11207;59.512;18.050;2022-08-19T01:38:55;19.40;99.90
22081;DHT22;11207;59.512;18.050;2022-08-19T01:41:21;19.50;99.90
22081;DHT22;11207;59.512;18.050;2022-08-19T01:43:47;19.50;99.90
22081;DHT22;11207;59.512;18.050;2022-08-19T01:46:14;19.50;99.90
22081;DHT22;11207;59.512;18.050;2022-08-19T01:48:41;19.50;99.90
22081;DHT22;11207;59.512;18.050;2022-08-19T01:51:09;19.50;99.90
22081;DHT22;11207;59.512;18.050;2022-08-19T01:53:36;19.50;99.90
22081;DHT22;11207;59.512;18.050;2022-08-19T01:56:02;19.50;99.90
22081;DHT22;11207;59.512;18.050;2022-08-19T01:58:39;19.50;99.90
22081;DHT22;11207;59.512;18.050;2022-08-19T02:01:06;19.50;99.90
22081;DHT22;11207;59.512;18.050;2022-08-19T02:03:32;19.50;99.90
22081;DHT22;11207;59.512;18.050;2022-08-19T02:06:01;19.50;99.90
22081;DHT22;11207;59.512;18.050;2022-08-19T02:08:29;19.60;99.90
22081;DHT22;11207;59.512;18.050;2022-08-19T02:10:55;19.60;99.90
22081;DHT22;11207;59.512;18.050;2022-08-19T02:13:23;19.60;99.90
22081;DHT22;11207;59.512;18.050;2022-08-19T02:15:48;19.60;99.90
22081;DHT22;11207;59.512;18.050;2022-08-19T02:18:14;19.60;99.90
22081;DHT22;11207;59.512;18.050;2022-08-19T02:20:41;19.60;99.90
22081;DHT22;11207;59.512;18.050;2022-08-19T02:23:09;19.60;99.90
22081;DHT22;11207;59.512;18.050;2022-08-19T02:25:34;19.60;99.90
22081;DHT22;11207;59.512;18.050;2022-08-19T02:28:00;19.60;99.90
22081;DHT22;11207;59.512;18.050;2022-08-19T02:30:26;19.60;99.90
22081;DHT22;11207;59.512;18.050;2022-08-19T02:32:52;19.60;99.90
22081;DHT22;11207;59.512;18.050;2022-08-19T02:35:18;19.60;99.90
22081;DHT22;11207;59.512;18.050;2022-08-19T02:37:44;19.60;99.90
22081;DHT22;11207;59.512;18.050;2022-08-19T02:40:29;19.60;99.90
22081;DHT22;11207;59.512;18.050;2022-08-19T02:43:00;19.70;99.90
22081;DHT22;11207;59.512;18.050;2022-08-19T02:45:26;19.70;99.90
22081;DHT22;11207;59.512;18.050;2022-08-19T02:47:52;19.70;99.90
22081;DHT22;11207;59.512;18.050;2022-08-19T02:50:18;19.70;99.90
22081;DHT22;11207;59.512;18.050;2022-08-19T02:52:44;19.70;99.90
22081;DHT22;11207;59.512;18.050;2022-08-19T02:55:11;19.70;99.90
22081;DHT22;11207;59.512;18.050;2022-08-19T02:57:36;19.80;99.90
22081;DHT22;11207;59.512;18.050;2022-08-19T03:00:07;19.80;99.90
22081;DHT22;11207;59.512;18.050;2022-08-19T03:02:33;19.70;99.90
22081;DHT22;11207;59.512;18.050;2022-08-19T03:04:59;19.80;99.90
22081;DHT22;11207;59.512;18.050;2022-08-19T03:07:24;19.70;99.90
22081;DHT22;11207;59.512;18.050;2022-08-19T03:09:50;19.70;99.90
22081;DHT22;11207;59.512;18.050;2022-08-19T03:12:16;19.70;99.90
22081;DHT22;11207;59.512;18.050;2022-08-19T03:14:41;19.70;99.90
22081;DHT22;11207;59.512;18.050;2022-08-19T03:17:07;19.70;99.90
22081;DHT22;11207;59.512;18.050;2022-08-19T03:19:33;19.70;99.90
22081;DHT22;11207;59.512;18.050;2022-08-19T03:21:59;19.70;99.90
22081;DHT22;11207;59.512;18.050;2022-08-19T03:24:24;19.70;99.90
22081;DHT22;11207;59.512;18.050;2022-08-19T03:26:52;19.70;99.90
22081;DHT22;11207;59.512;18.050;2022-08-19T03:29:22;19.70;99.90
22081;DHT22;11207;59.512;18.050;2022-08-19T03:31:48;19.70;99.90
22081;DHT22;11207;59.512;18.050;2022-08-19T03:34:20;19.70;99.90
22081;DHT22;11207;59.512;18.050;2022-08-19T03:36:47;19.70;99.90
22081;DHT22;11207;59.512;18.050;2022-08-19T03:39:13;19.80;99.90
22081;DHT22;11207;59.512;18.050;2022-08-19T03:41:41;19.70;99.90
22081;DHT22;11207;59.512;18.050;2022-08-19T03:44:06;19.80;99.90
22081;DHT22;11207;59.512;18.050;2022-08-19T03:46:35;19.70;99.90
22081;DHT22;11207;59.512;18.050;2022-08-19T03:49:03;19.80;99.90
22081;DHT22;11207;59.512;18.050;2022-08-19T03:51:35;19.70;99.90
22081;DHT22;11207;59.512;18.050;2022-08-19T03:54:04;19.80;99.90
22081;DHT22;11207;59.512;18.050;2022-08-19T03:56:33;19.80;99.90
22081;DHT22;11207;59.512;18.050;2022-08-19T03:58:59;19.80;99.90
22081;DHT22;11207;59.512;18.050;2022-08-19T04:01:28;19.80;99.90
22081;DHT22;11207;59.512;18.050;2022-08-19T04:03:59;19.80;99.90
22081;DHT22;11207;59.512;18.050;2022-08-19T04:06:30;19.80;99.90
22081;DHT22;11207;59.512;18.050;2022-08-19T04:08:58;19.90;99.90
22081;DHT22;11207;59.512;18.050;2022-08-19T04:11:27;19.90;99.90
22081;DHT22;11207;59.512;18.050;2022-08-19T04:13:54;19.90;99.90
22081;DHT22;11207;59.512;18.050;2022-08-19T04:16:22;20.00;99.90
22081;DHT22;11207;59.512;18.050;2022-08-19T04:18:48;19.90;99.90
22081;DHT22;11207;59.512;18.050;2022-08-19T04:21:17;19.90;99.90
22081;DHT22;11207;59.512;18.050;2022-08-19T04:23:44;20.00;99.90
22081;DHT22;11207;59.512;18.050;2022-08-19T04:26:18;20.00;99.90
22081;DHT22;11207;59.512;18.050;2022-08-19T04:28:45;19.90;99.90
22081;DHT22;11207;59.512;18.050;2022-08-19T04:31:20;20.00;99.90
22081;DHT22;11207;59.512;18.050;2022-08-19T04:33:46;20.10;99.90
22081;DHT22;11207;59.512;18.050;2022-08-19T04:36:21;20.10;99.90
22081;DHT22;11207;59.512;18.050;2022-08-19T04:38:49;20.10;99.90
22081;DHT22;11207;59.512;18.050;2022-08-19T04:41:15;20.00;99.90
22081;DHT22;11207;59.512;18.050;2022-08-19T04:43:59;20.10;99.90
22081;DHT22;11207;59.512;18.050;2022-08-19T04:46:25;20.00;99.90
22081;DHT22;11207;59.512;18.050;2022-08-19T04:48:51;20.10;99.90
22081;DHT22;11207;59.512;18.050;2022-08-19T04:51:18;20.10;99.90
22081;DHT22;11207;59.512;18.050;2022-08-19T04:53:45;20.10;99.90
22081;DHT22;11207;59.512;18.050;2022-08-19T04:56:14;20.20;99.90
22081;DHT22;11207;59.512;18.050;2022-08-19T04:58:42;20.20;99.90
22081;DHT22;11207;59.512;18.050;2022-08-19T05:01:12;20.20;99.90
22081;DHT22;11207;59.512;18.050;2022-08-19T05:03:38;20.20;99.90
22081;DHT22;11207;59.512;18.050;2022-08-19T05:06:10;20.20;99.90
22081;DHT22;11207;59.512;18.050;2022-08-19T05:08:39;20.20;99.90
22081;DHT22;11207;59.512;18.050;2022-08-19T05:11:29;20.20;99.90
22081;DHT22;11207;59.512;18.050;2022-08-19T05:13:56;20.30;99.90
22081;DHT22;11207;59.512;18.050;2022-08-19T05:16:23;20.30;99.90
22081;DHT22;11207;59.512;18.050;2022-08-19T05:18:49;20.30;99.90
22081;DHT22;11207;59.512;18.050;2022-08-19T05:21:35;20.40;99.90
22081;DHT22;11207;59.512;18.050;2022-08-19T05:24:21;20.40;99.90
22081;DHT22;11207;59.512;18.050;2022-08-19T05:26:48;20.50;99.90
22081;DHT22;11207;59.512;18.050;2022-08-19T05:29:18;20.50;99.90
22081;DHT22;11207;59.512;18.050;2022-08-19T05:31:45;20.50;99.90
22081;DHT22;11207;59.512;18.050;2022-08-19T05:34:11;20.50;99.90
22081;DHT22;11207;59.512;18.050;2022-08-19T05:36:39;20.60;99.90
22081;DHT22;11207;59.512;18.050;2022-08-19T05:39:07;20.60;99.90
22081;DHT22;11207;59.512;18.050;2022-08-19T05:41:33;20.70;99.90
22081;DHT22;11207;59.512;18.050;2022-08-19T05:44:04;20.70;99.90
22081;DHT22;11207;59.512;18.050;2022-08-19T05:46:38;20.80;99.90
22081;DHT22;11207;59.512;18.050;2022-08-19T05:49:05;20.90;99.90
22081;DHT22;11207;59.512;18.050;2022-08-19T05:51:32;20.90;99.90
22081;DHT22;11207;59.512;18.050;2022-08-19T05:54:00;20.90;99.90
22081;DHT22;11207;59.512;18.050;2022-08-19T05:56:26;21.00;99.90
22081;DHT22;11207;59.512;18.050;2022-08-19T05:58:52;21.10;99.90
22081;DHT22;11207;59.512;18.050;2022-08-19T06:01:20;21.10;99.90
22081;DHT22;11207;59.512;18.050;2022-08-19T06:03:46;21.10;99.90
22081;DHT22;11207;59.512;18.050;2022-08-19T06:06:14;21.20;99.90
22081;DHT22;11207;59.512;18.050;2022-08-19T06:08:40;21.20;99.90
22081;DHT22;11207;59.512;18.050;2022-08-19T06:11:13;21.30;99.90
22081;DHT22;11207;59.512;18.050;2022-08-19T06:13:39;21.30;99.90
22081;DHT22;11207;59.512;18.050;2022-08-19T06:16:05;21.50;99.90
22081;DHT22;11207;59.512;18.050;2022-08-19T06:18:31;21.50;99.90
22081;DHT22;11207;59.512;18.050;2022-08-19T06:20:57;21.60;99.90
22081;DHT22;11207;59.512;18.050;2022-08-19T06:23:23;21.60;99.90
22081;DHT22;11207;59.512;18.050;2022-08-19T06:25:48;21.60;99.90
22081;DHT22;11207;59.512;18.050;2022-08-19T06:28:14;21.70;99.90
22081;DHT22;11207;59.512;18.050;2022-08-19T06:30:39;21.80;99.90
22081;DHT22;11207;59.512;18.050;2022-08-19T06:33:05;21.90;99.90
22081;DHT22;11207;59.512;18.050;2022-08-19T06:35:31;22.00;99.90
22081;DHT22;11207;59.512;18.050;2022-08-19T06:37:56;22.00;99.90
22081;DHT22;11207;59.512;18.050;2022-08-19T06:40:22;22.10;99.90
22081;DHT22;11207;59.512;18.050;2022-08-19T06:42:48;22.20;99.90
22081;DHT22;11207;59.512;18.050;2022-08-19T06:45:14;22.20;99.90
22081;DHT22;11207;59.512;18.050;2022-08-19T06:47:40;22.40;99.90
22081;DHT22;11207;59.512;18.050;2022-08-19T06:50:13;22.40;99.90
22081;DHT22;11207;59.512;18.050;2022-08-19T06:52:39;22.50;99.90
22081;DHT22;11207;59.512;18.050;2022-08-19T06:55:05;22.60;99.90
22081;DHT22;11207;59.512;18.050;2022-08-19T06:57:31;22.60;99.90
22081;DHT22;11207;59.512;18.050;2022-08-19T06:59:58;22.70;99.90
22081;DHT22;11207;59.512;18.050;2022-08-19T07:02:25;22.80;99.90
22081;DHT22;11207;59.512;18.050;2022-08-19T07:04:52;22.80;99.90
22081;DHT22;11207;59.512;18.050;2022-08-19T07:07:18;22.90;99.90
22081;DHT22;11207;59.512;18.050;2022-08-19T07:09:44;22.80;99.90
22081;DHT22;11207;59.512;18.050;2022-08-19T07:12:12;22.90;99.90
22081;DHT22;11207;59.512;18.050;2022-08-19T07:14:40;22.90;99.90
22081;DHT22;11207;59.512;18.050;2022-08-19T07:17:10;23.00;99.90
22081;DHT22;11207;59.512;18.050;2022-08-19T07:19:37;23.00;99.90
22081;DHT22;11207;59.512;18.050;2022-08-19T07:22:05;23.10;99.90
22081;DHT22;11207;59.512;18.050;2022-08-19T07:24:32;23.20;99.90
22081;DHT22;11207;59.512;18.050;2022-08-19T07:27:00;23.30;99.90
22081;DHT22;11207;59.512;18.050;2022-08-19T07:29:29;23.40;99.90
22081;DHT22;11207;59.512;18.050;2022-08-19T07:31:56;23.50;99.90
22081;DHT22;11207;59.512;18.050;2022-08-19T07:34:23;23.50;99.90
22081;DHT22;11207;59.512;18.050;2022-08-19T07:36:49;23.60;99.90
22081;DHT22;11207;59.512;18.050;2022-08-19T07:39:21;23.80;99.90
22081;DHT22;11207;59.512;18.050;2022-08-19T07:41:48;24.00;99.90
22081;DHT22;11207;59.512;18.050;2022-08-19T07:44:15;24.20;99.90
22081;DHT22;11207;59.512;18.050;2022-08-19T07:46:44;24.30;99.90
22081;DHT22;11207;59.512;18.050;2022-08-19T07:49:12;24.40;99.90
22081;DHT22;11207;59.512;18.050;2022-08-19T07:51:43;24.50;99.90
22081;DHT22;11207;59.512;18.050;2022-08-19T07:54:10;24.70;99.90
22081;DHT22;11207;59.512;18.050;2022-08-19T07:56:37;24.80;99.90
22081;DHT22;11207;59.512;18.050;2022-08-19T07:59:03;25.00;99.90
22081;DHT22;11207;59.512;18.050;2022-08-19T08:01:29;25.20;99.90
22081;DHT22;11207;59.512;18.050;2022-08-19T08:03:56;25.20;99.90
22081;DHT22;11207;59.512;18.050;2022-08-19T08:06:40;25.20;99.90
22081;DHT22;11207;59.512;18.050;2022-08-19T08:09:37;25.40;99.90
22081;DHT22;11207;59.512;18.050;2022-08-19T08:12:09;25.60;99.90
22081;DHT22;11207;59.512;18.050;2022-08-19T08:14:57;25.80;99.90
22081;DHT22;11207;59.512;18.050;2022-08-19T08:17:26;25.90;99.90
22081;DHT22;11207;59.512;18.050;2022-08-19T08:19:51;26.00;99.90
22081;DHT22;11207;59.512;18.050;2022-08-19T08:22:20;26.10;99.90
22081;DHT22;11207;59.512;18.050;2022-08-19T08:25:15;26.20;99.90
22081;DHT22;11207;59.512;18.050;2022-08-19T08:27:43;26.20;99.90
22081;DHT22;11207;59.512;18.050;2022-08-19T08:30:17;26.30;99.90
22081;DHT22;11207;59.512;18.050;2022-08-19T08:32:43;26.40;99.90
22081;DHT22;11207;59.512;18.050;2022-08-19T08:35:11;26.50;99.90
22081;DHT22;11207;59.512;18.050;2022-08-19T08:37:37;26.50;99.90
22081;DHT22;11207;59.512;18.050;2022-08-19T08:43:09;26.70;99.90
22081;DHT22;11207;59.512;18.050;2022-08-19T08:45:42;26.70;99.90
22081;DHT22;11207;59.512;18.050;2022-08-19T08:48:23;26.80;99.90
22081;DHT22;11207;59.512;18.050;2022-08-19T08:50:51;26.80;99.90
22081;DHT22;11207;59.512;18.050;2022-08-19T08:53:19;26.90;99.90
22081;DHT22;11207;59.512;18.050;2022-08-19T08:55:46;27.10;99.90
22081;DHT22;11207;59.512;18.050;2022-08-19T08:58:31;27.10;99.90
22081;DHT22;11207;59.512;18.050;2022-08-19T09:00:58;27.20;99.90
22081;DHT22;11207;59.512;18.050;2022-08-19T09:03:26;27.30;99.90
22081;DHT22;11207;59.512;18.050;2022-08-19T09:16:45;27.80;99.90
22081;DHT22;11207;59.512;18.050;2022-08-19T09:19:11;27.90;99.90
22081;DHT22;11207;59.512;18.050;2022-08-19T09:21:37;28.00;99.90
22081;DHT22;11207;59.512;18.050;2022-08-19T09:24:04;28.00;99.90
22081;DHT22;11207;59.512;18.050;2022-08-19T09:26:32;28.30;99.90
22081;DHT22;11207;59.512;18.050;2022-08-19T09:28:58;28.40;99.90
22081;DHT22;11207;59.512;18.050;2022-08-19T09:31:27;28.40;99.90
22081;DHT22;11207;59.512;18.050;2022-08-19T09:33:53;28.60;99.90
22081;DHT22;11207;59.512;18.050;2022-08-19T09:36:23;28.80;99.90
22081;DHT22;11207;59.512;18.050;2022-08-19T09:38:50;28.90;99.90
22081;DHT22;11207;59.512;18.050;2022-08-19T09:41:18;28.90;99.90
22081;DHT22;11207;59.512;18.050;2022-08-19T09:43:47;29.00;99.90
22081;DHT22;11207;59.512;18.050;2022-08-19T09:46:13;29.00;99.90
22081;DHT22;11207;59.512;18.050;2022-08-19T09:48:39;29.10;99.90
22081;DHT22;11207;59.512;18.050;2022-08-19T09:51:08;29.00;99.90
22081;DHT22;11207;59.512;18.050;2022-08-19T09:53:35;29.10;99.90
22081;DHT22;11207;59.512;18.050;2022-08-19T09:56:02;29.30;99.90
22081;DHT22;11207;59.512;18.050;2022-08-19T09:58:28;29.60;99.90
22081;DHT22;11207;59.512;18.050;2022-08-19T10:00:59;29.70;99.90
22081;DHT22;11207;59.512;18.050;2022-08-19T10:03:27;29.70;99.90
22081;DHT22;11207;59.512;18.050;2022-08-19T10:05:54;29.70;99.90
22081;DHT22;11207;59.512;18.050;2022-08-19T10:08:25;29.80;99.90
22081;DHT22;11207;59.512;18.050;2022-08-19T10:10:51;29.80;99.50
22081;DHT22;11207;59.512;18.050;2022-08-19T10:13:20;29.90;99.90
22081;DHT22;11207;59.512;18.050;2022-08-19T10:15:48;30.30;99.00
22081;DHT22;11207;59.512;18.050;2022-08-19T10:18:16;30.50;98.20
22081;DHT22;11207;59.512;18.050;2022-08-19T10:20:46;30.60;99.90
22081;DHT22;11207;59.512;18.050;2022-08-19T10:23:13;31.00;99.20
22081;DHT22;11207;59.512;18.050;2022-08-19T10:25:39;31.20;97.40
22081;DHT22;11207;59.512;18.050;2022-08-19T10:28:05;31.40;97.80
22081;DHT22;11207;59.512;18.050;2022-08-19T10:30:36;31.30;97.20
22081;DHT22;11207;59.512;18.050;2022-08-19T10:33:01;31.10;93.70
22081;DHT22;11207;59.512;18.050;2022-08-19T10:35:27;30.80;93.90
22081;DHT22;11207;59.512;18.050;2022-08-19T10:37:55;30.60;95.80
22081;DHT22;11207;59.512;18.050;2022-08-19T10:40:25;30.90;95.00
22081;DHT22;11207;59.512;18.050;2022-08-19T10:42:51;31.30;95.80
22081;DHT22;11207;59.512;18.050;2022-08-19T10:45:17;31.70;93.90
22081;DHT22;11207;59.512;18.050;2022-08-19T10:48:03;31.80;95.00
22081;DHT22;11207;59.512;18.050;2022-08-19T10:50:28;32.10;94.20
22081;DHT22;11207;59.512;18.050;2022-08-19T10:53:13;32.00;93.10
22081;DHT22;11207;59.512;18.050;2022-08-19T10:55:38;32.30;92.50
22081;DHT22;11207;59.512;18.050;2022-08-19T10:58:27;32.20;91.00
22081;DHT22;11207;59.512;18.050;2022-08-19T11:00:55;32.40;94.80
22081;DHT22;11207;59.512;18.050;2022-08-19T11:03:22;32.20;89.80
22081;DHT22;11207;59.512;18.050;2022-08-19T11:06:04;31.90;88.30
22081;DHT22;11207;59.512;18.050;2022-08-19T11:08:30;31.80;89.70
22081;DHT22;11207;59.512;18.050;2022-08-19T11:10:59;31.70;90.40
22081;DHT22;11207;59.512;18.050;2022-08-19T11:13:35;31.50;90.10
22081;DHT22;11207;59.512;18.050;2022-08-19T11:16:07;31.50;89.60
22081;DHT22;11207;59.512;18.050;2022-08-19T11:18:38;31.70;94.20
22081;DHT22;11207;59.512;18.050;2022-08-19T11:21:13;31.80;92.30
22081;DHT22;11207;59.512;18.050;2022-08-19T11:23:39;32.30;93.00
22081;DHT22;11207;59.512;18.050;2022-08-19T11:26:05;32.20;90.30
22081;DHT22;11207;59.512;18.050;2022-08-19T11:28:31;31.70;89.80
22081;DHT22;11207;59.512;18.050;2022-08-19T11:30:56;32.00;89.10
22081;DHT22;11207;59.512;18.050;2022-08-19T11:33:22;31.50;86.60
22081;DHT22;11207;59.512;18.050;2022-08-19T11:35:48;31.50;90.60
22081;DHT22;11207;59.512;18.050;2022-08-19T11:38:14;32.00;89.50
22081;DHT22;11207;59.512;18.050;2022-08-19T11:40:40;32.10;89.70
22081;DHT22;11207;59.512;18.050;2022-08-19T11:43:07;32.00;86.30
22081;DHT22;11207;59.512;18.050;2022-08-19T11:45:33;32.30;88.90
22081;DHT22;11207;59.512;18.050;2022-08-19T11:47:59;32.30;89.70
22081;DHT22;11207;59.512;18.050;2022-08-19T11:50:25;32.60;90.80
22081;DHT22;11207;59.512;18.050;2022-08-19T11:52:54;33.20;90.30
22081;DHT22;11207;59.512;18.050;2022-08-19T11:55:20;33.00;80.60
22081;DHT22;11207;59.512;18.050;2022-08-19T11:57:46;33.00;84.00
22081;DHT22;11207;59.512;18.050;2022-08-19T12:00:12;32.70;80.90
22081;DHT22;11207;59.512;18.050;2022-08-19T12:02:39;33.00;83.30
22081;DHT22;11207;59.512;18.050;2022-08-19T12:05:05;33.30;82.90
22081;DHT22;11207;59.512;18.050;2022-08-19T12:07:32;33.30;85.00
22081;DHT22;11207;59.512;18.050;2022-08-19T12:09:59;33.10;78.70
22081;DHT22;11207;59.512;18.050;2022-08-19T12:12:26;32.80;81.40
22081;DHT22;11207;59.512;18.050;2022-08-19T12:14:52;32.80;78.30
22081;DHT22;11207;59.512;18.050;2022-08-19T12:17:26;32.80;85.40
22081;DHT22;11207;59.512;18.050;2022-08-19T12:19:53;33.30;82.80
22081;DHT22;11207;59.512;18.050;2022-08-19T12:22:19;33.40;78.20
22081;DHT22;11207;59.512;18.050;2022-08-19T12:24:46;33.30;78.70
22081;DHT22;11207;59.512;18.050;2022-08-19T12:27:11;33.20;80.80
22081;DHT22;11207;59.512;18.050;2022-08-19T12:29:37;32.70;81.50
22081;DHT22;11207;59.512;18.050;2022-08-19T12:32:03;32.60;84.90
22081;DHT22;11207;59.512;18.050;2022-08-19T12:34:30;32.80;82.10
22081;DHT22;11207;59.512;18.050;2022-08-19T12:36:57;32.80;84.70
22081;DHT22;11207;59.512;18.050;2022-08-19T12:39:24;32.80;80.70
22081;DHT22;11207;59.512;18.050;2022-08-19T12:41:50;32.80;85.50
22081;DHT22;11207;59.512;18.050;2022-08-19T12:44:16;32.70;81.40
22081;DHT22;11207;59.512;18.050;2022-08-19T12:46:42;32.40;83.40
22081;DHT22;11207;59.512;18.050;2022-08-19T12:49:07;32.60;81.70
22081;DHT22;11207;59.512;18.050;2022-08-19T12:51:33;31.90;84.80
22081;DHT22;11207;59.512;18.050;2022-08-19T12:53:59;31.90;87.00
22081;DHT22;11207;59.512;18.050;2022-08-19T12:56:24;31.60;85.80
22081;DHT22;11207;59.512;18.050;2022-08-19T12:58:50;31.50;87.50
22081;DHT22;11207;59.512;18.050;2022-08-19T13:01:17;31.60;85.70
22081;DHT22;11207;59.512;18.050;2022-08-19T13:03:45;31.50;86.50
22081;DHT22;11207;59.512;18.050;2022-08-19T13:06:11;31.60;88.00
22081;DHT22;11207;59.512;18.050;2022-08-19T13:08:37;31.60;86.90
22081;DHT22;11207;59.512;18.050;2022-08-19T13:11:22;31.60;85.40
22081;DHT22;11207;59.512;18.050;2022-08-19T13:13:52;31.60;85.20
22081;DHT22;11207;59.512;18.050;2022-08-19T13:16:20;31.50;89.30
22081;DHT22;11207;59.512;18.050;2022-08-19T13:18:47;31.60;84.90
22081;DHT22;11207;59.512;18.050;2022-08-19T13:21:13;31.10;86.00
22081;DHT22;11207;59.512;18.050;2022-08-19T13:23:40;30.80;88.00
22081;DHT22;11207;59.512;18.050;2022-08-19T13:26:07;30.80;88.40
22081;DHT22;11207;59.512;18.050;2022-08-19T13:28:34;30.60;88.50
22081;DHT22;11207;59.512;18.050;2022-08-19T13:31:20;30.50;88.00
22081;DHT22;11207;59.512;18.050;2022-08-19T13:34:06;30.50;88.80
22081;DHT22;11207;59.512;18.050;2022-08-19T13:36:33;30.30;89.30
22081;DHT22;11207;59.512;18.050;2022-08-19T13:38:59;30.20;90.00
22081;DHT22;11207;59.512;18.050;2022-08-19T13:41:25;30.30;88.60
22081;DHT22;11207;59.512;18.050;2022-08-19T13:43:51;30.20;89.00
22081;DHT22;11207;59.512;18.050;2022-08-19T13:46:16;30.30;88.40
22081;DHT22;11207;59.512;18.050;2022-08-19T13:48:43;30.30;88.90
22081;DHT22;11207;59.512;18.050;2022-08-19T13:51:08;30.10;88.30
22081;DHT22;11207;59.512;18.050;2022-08-19T13:53:38;30.00;89.40
22081;DHT22;11207;59.512;18.050;2022-08-19T13:56:09;30.10;88.70
22081;DHT22;11207;59.512;18.050;2022-08-19T13:58:36;30.20;87.70
22081;DHT22;11207;59.512;18.050;2022-08-19T14:01:03;30.30;86.80
22081;DHT22;11207;59.512;18.050;2022-08-19T14:03:29;30.10;84.90
22081;DHT22;11207;59.512;18.050;2022-08-19T14:05:55;30.10;84.50
22081;DHT22;11207;59.512;18.050;2022-08-19T14:08:21;30.00;84.90
22081;DHT22;11207;59.512;18.050;2022-08-19T14:10:47;30.00;85.50
22081;DHT22;11207;59.512;18.050;2022-08-19T14:13:19;30.10;86.00
22081;DHT22;11207;59.512;18.050;2022-08-19T14:15:46;30.10;86.00
22081;DHT22;11207;59.512;18.050;2022-08-19T14:18:13;30.10;85.50
22081;DHT22;11207;59.512;18.050;2022-08-19T14:20:39;30.10;86.30
22081;DHT22;11207;59.512;18.050;2022-08-19T14:23:05;30.10;85.80
22081;DHT22;11207;59.512;18.050;2022-08-19T14:25:32;30.20;83.70
22081;DHT22;11207;59.512;18.050;2022-08-19T14:27:58;30.20;84.70
22081;DHT22;11207;59.512;18.050;2022-08-19T14:30:29;30.20;85.00
22081;DHT22;11207;59.512;18.050;2022-08-19T14:32:56;30.20;83.60
22081;DHT22;11207;59.512;18.050;2022-08-19T14:35:23;30.20;83.80
22081;DHT22;11207;59.512;18.050;2022-08-19T14:37:49;30.20;83.90
22081;DHT22;11207;59.512;18.050;2022-08-19T14:40:19;30.10;83.90
22081;DHT22;11207;59.512;18.050;2022-08-19T14:42:47;30.10;84.20
22081;DHT22;11207;59.512;18.050;2022-08-19T14:45:14;30.10;82.60
22081;DHT22;11207;59.512;18.050;2022-08-19T14:47:39;30.00;84.10
22081;DHT22;11207;59.512;18.050;2022-08-19T14:50:10;30.10;86.40
22081;DHT22;11207;59.512;18.050;2022-08-19T14:52:36;30.00;86.40
22081;DHT22;11207;59.512;18.050;2022-08-19T14:55:03;29.90;89.50
22081;DHT22;11207;59.512;18.050;2022-08-19T14:57:29;29.70;90.90
22081;DHT22;11207;59.512;18.050;2022-08-19T14:59:55;29.50;90.40
22081;DHT22;11207;59.512;18.050;2022-08-19T15:02:22;29.50;91.30
22081;DHT22;11207;59.512;18.050;2022-08-19T15:04:48;29.30;90.90
22081;DHT22;11207;59.512;18.050;2022-08-19T15:07:13;29.30;91.60
22081;DHT22;11207;59.512;18.050;2022-08-19T15:09:39;29.20;91.70
22081;DHT22;11207;59.512;18.050;2022-08-19T15:12:05;29.30;91.00
22081;DHT22;11207;59.512;18.050;2022-08-19T15:14:31;29.30;90.70
22081;DHT22;11207;59.512;18.050;2022-08-19T15:16:59;29.30;90.60
22081;DHT22;11207;59.512;18.050;2022-08-19T15:19:24;29.20;89.90
22081;DHT22;11207;59.512;18.050;2022-08-19T15:21:50;29.10;88.20
22081;DHT22;11207;59.512;18.050;2022-08-19T15:24:16;29.10;88.80
22081;DHT22;11207;59.512;18.050;2022-08-19T15:26:42;29.00;90.80
22081;DHT22;11207;59.512;18.050;2022-08-19T15:29:08;29.00;92.20
22081;DHT22;11207;59.512;18.050;2022-08-19T15:31:34;29.10;92.60
22081;DHT22;11207;59.512;18.050;2022-08-19T15:34:02;29.10;93.60
22081;DHT22;11207;59.512;18.050;2022-08-19T15:36:27;29.10;93.80